This is the latest recevied weather packets stored in our database for station/object IU1FIL-23. If no packets are shown the sender has not sent any weather packets the latest 10 day(s).
| Time | Temp. | Humidity | Pressure | Rain* | Wind** | Luminosity | Snow |
|---|---|---|---|---|---|---|---|
| 1777811301 | 22.22° C | 35% | 1021.9 hPa | - | - | - | - |
| 1777810697 | 22.22° C | 34% | 1022.1 hPa | - | - | - | - |
| 1777810093 | 22.78° C | 34% | 1022.2 hPa | - | - | - | - |
| 1777809489 | 23.33° C | 33% | 1022.2 hPa | - | - | - | - |
| 1777808885 | 23.33° C | 33% | 1022.1 hPa | - | - | - | - |
| 1777808281 | 23.33° C | 32% | 1022.1 hPa | - | - | - | - |
| 1777807676 | 22.22° C | 32% | 1022.2 hPa | - | - | - | - |
| 1777807060 | 23.89° C | 33% | 1022.1 hPa | - | - | - | - |
| 1777806455 | 21.11° C | 35% | 1022.2 hPa | - | - | - | - |
| 1777805833 | 18.89° C | 38% | 1022.3 hPa | - | - | - | - |
| 1777805229 | 17.22° C | 38% | 1022.4 hPa | - | - | - | - |
| 1777804624 | 23.33° C | 35% | 1022.4 hPa | - | - | - | - |
| 1777804020 | 20° C | 36% | 1022.6 hPa | - | - | - | - |
| 1777803416 | 20° C | 41% | 1022.5 hPa | - | - | - | - |
| 1777802810 | 19.44° C | 42% | 1022.5 hPa | - | - | - | - |
| 1777802196 | 19.44° C | 43% | 1022.6 hPa | - | - | - | - |
| 1777801591 | 20.56° C | 41% | 1022.6 hPa | - | - | - | - |
| 1777800987 | 22.22° C | 36% | 1022.5 hPa | - | - | - | - |
| 1777800383 | 23.33° C | 38% | 1022.3 hPa | - | - | - | - |
| 1777799779 | 22.22° C | 39% | 1022.4 hPa | - | - | - | - |
| 1777798561 | 20.56° C | 41% | 1022.4 hPa | - | - | - | - |
| 1777797957 | 19.44° C | 43% | 1022.3 hPa | - | - | - | - |
| 1777797353 | 18.33° C | 44% | 1022.3 hPa | - | - | - | - |
| 1777796749 | 16.67° C | 45% | 1022.3 hPa | - | - | - | - |
| 1777796131 | 16.11° C | 45% | 1022.2 hPa | - | - | - | - |
* Rain since midnight (hover to see other rain measurements)
** Current wind speed in m/s (hover to see current wind gust speed)